This is the latest recevied weather packets stored in our database for station/object M0XDC. If no packets are shown the sender has not sent any weather packets the latest 10 day(s).
| Time | Temp. | Humidity | Pressure | Rain* | Wind** | Luminosity | Snow |
|---|---|---|---|---|---|---|---|
| 1787979705 | 16.67° C | 88% | 1005.5 hPa | 0 mm | - | - | - |
| 1787977905 | 16.67° C | 88% | 1005.5 hPa | 0 mm | - | - | - |
| 1787976105 | 16.67° C | 89% | 1005.6 hPa | 0 mm | - | - | - |
| 1787974305 | 16.67° C | 88% | 1005.7 hPa | 0 mm | - | - | - |
| 1787972505 | 16.67° C | 87% | 1005.6 hPa | 0 mm | - | - | - |
| 1787970705 | 16.67° C | 88% | 1005.6 hPa | 0 mm | - | - | - |
| 1787968905 | 16.67° C | 87% | 1006 hPa | 0 mm | - | - | - |
| 1787967105 | 16.67° C | 86% | 1006.2 hPa | 0 mm | - | - | - |
| 1787965305 | 16.67° C | 87% | 1005.8 hPa | 0 mm | - | - | - |
| 1787963505 | 17.22° C | 86% | 1006 hPa | 0 mm | - | - | - |
| 1787961705 | 17.22° C | 86% | 1006.1 hPa | 0 mm | - | - | - |
| 1787959905 | 17.22° C | 87% | 1006 hPa | 0 mm | - | - | - |
| 1787958105 | 16.67° C | 88% | 1005.9 hPa | 0 mm | - | - | - |
| 1787956305 | 16.67° C | 89% | 1005.8 hPa | 0 mm | - | - | - |
| 1787954505 | 16.67° C | 89% | 1006 hPa | 0 mm | - | - | - |
| 1787952705 | 16.67° C | 91% | 1005.8 hPa | 0 mm | - | - | - |
| 1787950905 | 16.67° C | 93% | 1005.9 hPa | 0 mm | - | - | - |
| 1787949105 | 17.22° C | 93% | 1005.8 hPa | 0 mm | - | - | - |
| 1787947305 | 17.22° C | 91% | 1005.7 hPa | 4.57 mm | - | - | - |
| 1787945505 | 17.22° C | 91% | 1005.6 hPa | 7.62 mm | - | - | - |
| 1787943705 | 18.33° C | 87% | 1005.3 hPa | 3.81 mm | - | - | - |
| 1787941905 | 20° C | 72% | 1004.6 hPa | 0 mm | - | - | - |
| 1787940105 | 20.56° C | 70% | 1004.5 hPa | 0 mm | - | - | - |
| 1787938305 | 20.56° C | 68% | 1004.2 hPa | 0 mm | - | - | - |
| 1787936505 | 21.67° C | 63% | 1004.2 hPa | 0 mm | - | - | - |
* Rain latest hour (hover to see other rain measurements)
** Current wind speed in m/s (hover to see current wind gust speed)